sensor_id;sensor_type;location;lat;lon;timestamp;P1;durP1;ratioP1;P2;durP2;ratioP2
48993;SDS011;34804;49.214;12.276;2023-04-03T00:00:35;4.70;;;2.60;;
48993;SDS011;34804;49.214;12.276;2023-04-03T00:03:02;6.18;;;2.88;;
48993;SDS011;34804;49.214;12.276;2023-04-03T00:05:29;5.78;;;2.90;;
48993;SDS011;34804;49.214;12.276;2023-04-03T00:07:56;4.70;;;2.45;;
48993;SDS011;34804;49.214;12.276;2023-04-03T00:10:22;5.93;;;2.45;;
48993;SDS011;34804;49.214;12.276;2023-04-03T00:12:49;7.18;;;3.10;;
48993;SDS011;34804;49.214;12.276;2023-04-03T00:15:16;5.38;;;2.60;;
48993;SDS011;34804;49.214;12.276;2023-04-03T00:17:43;6.22;;;2.50;;
48993;SDS011;34804;49.214;12.276;2023-04-03T00:20:10;7.07;;;2.90;;
48993;SDS011;34804;49.214;12.276;2023-04-03T00:22:37;6.13;;;2.83;;
48993;SDS011;34804;49.214;12.276;2023-04-03T00:25:04;9.00;;;2.70;;
48993;SDS011;34804;49.214;12.276;2023-04-03T00:27:31;5.32;;;2.53;;
48993;SDS011;34804;49.214;12.276;2023-04-03T00:29:58;5.18;;;2.40;;
48993;SDS011;34804;49.214;12.276;2023-04-03T00:32:24;5.55;;;2.72;;
48993;SDS011;34804;49.214;12.276;2023-04-03T00:34:51;6.20;;;2.80;;
48993;SDS011;34804;49.214;12.276;2023-04-03T00:37:18;5.95;;;2.65;;
48993;SDS011;34804;49.214;12.276;2023-04-03T00:39:45;5.72;;;2.90;;
48993;SDS011;34804;49.214;12.276;2023-04-03T00:42:12;5.07;;;2.50;;
48993;SDS011;34804;49.214;12.276;2023-04-03T00:47:07;4.93;;;2.50;;
48993;SDS011;34804;49.214;12.276;2023-04-03T00:49:37;5.25;;;2.63;;
48993;SDS011;34804;49.214;12.276;2023-04-03T00:52:08;4.68;;;2.47;;
48993;SDS011;34804;49.214;12.276;2023-04-03T00:54:41;4.75;;;2.35;;
48993;SDS011;34804;49.214;12.276;2023-04-03T00:57:09;5.70;;;2.90;;
48993;SDS011;34804;49.214;12.276;2023-04-03T00:59:39;4.88;;;2.45;;
48993;SDS011;34804;49.214;12.276;2023-04-03T01:02:11;5.03;;;2.70;;
48993;SDS011;34804;49.214;12.276;2023-04-03T01:04:39;6.43;;;2.60;;
48993;SDS011;34804;49.214;12.276;2023-04-03T01:09:47;5.38;;;2.35;;
48993;SDS011;34804;49.214;12.276;2023-04-03T01:12:17;5.18;;;2.47;;
48993;SDS011;34804;49.214;12.276;2023-04-03T01:14:54;6.53;;;3.05;;
48993;SDS011;34804;49.214;12.276;2023-04-03T01:25:19;6.57;;;2.85;;
48993;SDS011;34804;49.214;12.276;2023-04-03T01:27:46;6.15;;;2.90;;
48993;SDS011;34804;49.214;12.276;2023-04-03T01:30:12;5.90;;;2.60;;
48993;SDS011;34804;49.214;12.276;2023-04-03T01:32:42;6.97;;;2.78;;
48993;SDS011;34804;49.214;12.276;2023-04-03T01:35:09;6.35;;;2.75;;
48993;SDS011;34804;49.214;12.276;2023-04-03T01:37:37;4.57;;;2.42;;
48993;SDS011;34804;49.214;12.276;2023-04-03T01:40:04;5.80;;;2.78;;
48993;SDS011;34804;49.214;12.276;2023-04-03T01:42:31;6.05;;;2.80;;
48993;SDS011;34804;49.214;12.276;2023-04-03T01:44:58;5.55;;;2.78;;
48993;SDS011;34804;49.214;12.276;2023-04-03T01:47:25;6.30;;;2.92;;
48993;SDS011;34804;49.214;12.276;2023-04-03T01:49:52;5.55;;;2.60;;
48993;SDS011;34804;49.214;12.276;2023-04-03T01:52:19;5.32;;;2.78;;
48993;SDS011;34804;49.214;12.276;2023-04-03T01:54:45;5.47;;;3.22;;
48993;SDS011;34804;49.214;12.276;2023-04-03T01:57:12;4.93;;;2.65;;
48993;SDS011;34804;49.214;12.276;2023-04-03T01:59:41;7.50;;;2.83;;
48993;SDS011;34804;49.214;12.276;2023-04-03T02:02:09;5.18;;;2.72;;
48993;SDS011;34804;49.214;12.276;2023-04-03T02:04:38;6.55;;;2.92;;
48993;SDS011;34804;49.214;12.276;2023-04-03T02:07:05;5.82;;;2.75;;
48993;SDS011;34804;49.214;12.276;2023-04-03T02:09:32;6.45;;;3.17;;
48993;SDS011;34804;49.214;12.276;2023-04-03T02:11:59;5.55;;;2.90;;
48993;SDS011;34804;49.214;12.276;2023-04-03T02:14:26;5.55;;;2.92;;
48993;SDS011;34804;49.214;12.276;2023-04-03T02:16:53;5.15;;;2.78;;
48993;SDS011;34804;49.214;12.276;2023-04-03T02:19:20;4.95;;;2.50;;
48993;SDS011;34804;49.214;12.276;2023-04-03T02:21:47;7.55;;;3.10;;
48993;SDS011;34804;49.214;12.276;2023-04-03T02:24:14;7.22;;;3.20;;
48993;SDS011;34804;49.214;12.276;2023-04-03T02:26:41;5.43;;;2.58;;
48993;SDS011;34804;49.214;12.276;2023-04-03T02:29:07;6.22;;;2.75;;
48993;SDS011;34804;49.214;12.276;2023-04-03T02:31:34;6.68;;;3.22;;
48993;SDS011;34804;49.214;12.276;2023-04-03T02:34:01;7.22;;;3.00;;
48993;SDS011;34804;49.214;12.276;2023-04-03T02:36:28;5.80;;;2.63;;
48993;SDS011;34804;49.214;12.276;2023-04-03T02:38:57;4.85;;;2.80;;
48993;SDS011;34804;49.214;12.276;2023-04-03T02:41:24;5.20;;;2.90;;
48993;SDS011;34804;49.214;12.276;2023-04-03T02:43:54;7.80;;;2.70;;
48993;SDS011;34804;49.214;12.276;2023-04-03T02:46:21;5.40;;;2.78;;
48993;SDS011;34804;49.214;12.276;2023-04-03T02:48:48;5.72;;;2.78;;
48993;SDS011;34804;49.214;12.276;2023-04-03T02:51:14;8.38;;;3.00;;
48993;SDS011;34804;49.214;12.276;2023-04-03T02:53:41;6.68;;;3.28;;
48993;SDS011;34804;49.214;12.276;2023-04-03T02:56:08;6.20;;;3.15;;
48993;SDS011;34804;49.214;12.276;2023-04-03T02:58:35;5.75;;;2.85;;
48993;SDS011;34804;49.214;12.276;2023-04-03T03:01:02;6.22;;;3.25;;
48993;SDS011;34804;49.214;12.276;2023-04-03T03:03:29;7.03;;;3.20;;
48993;SDS011;34804;49.214;12.276;2023-04-03T03:06:06;6.18;;;3.00;;
48993;SDS011;34804;49.214;12.276;2023-04-03T03:08:34;5.65;;;2.67;;
48993;SDS011;34804;49.214;12.276;2023-04-03T03:11:02;6.50;;;2.97;;
48993;SDS011;34804;49.214;12.276;2023-04-03T03:13:29;7.15;;;2.70;;
48993;SDS011;34804;49.214;12.276;2023-04-03T03:15:57;4.95;;;2.70;;
48993;SDS011;34804;49.214;12.276;2023-04-03T03:18:24;5.53;;;2.80;;
48993;SDS011;34804;49.214;12.276;2023-04-03T03:20:55;6.30;;;2.92;;
48993;SDS011;34804;49.214;12.276;2023-04-03T03:23:24;6.70;;;3.05;;
48993;SDS011;34804;49.214;12.276;2023-04-03T03:25:55;5.80;;;3.17;;
48993;SDS011;34804;49.214;12.276;2023-04-03T03:28:24;6.07;;;3.20;;
48993;SDS011;34804;49.214;12.276;2023-04-03T03:30:51;7.00;;;2.80;;
48993;SDS011;34804;49.214;12.276;2023-04-03T03:33:18;5.28;;;2.60;;
48993;SDS011;34804;49.214;12.276;2023-04-03T03:35:45;5.63;;;2.80;;
48993;SDS011;34804;49.214;12.276;2023-04-03T03:38:12;6.88;;;2.90;;
48993;SDS011;34804;49.214;12.276;2023-04-03T03:40:39;6.22;;;2.78;;
48993;SDS011;34804;49.214;12.276;2023-04-03T03:43:05;6.03;;;2.80;;
48993;SDS011;34804;49.214;12.276;2023-04-03T03:45:32;5.28;;;2.92;;
48993;SDS011;34804;49.214;12.276;2023-04-03T03:48:00;5.68;;;3.10;;
48993;SDS011;34804;49.214;12.276;2023-04-03T03:50:27;7.82;;;2.97;;
48993;SDS011;34804;49.214;12.276;2023-04-03T03:52:54;7.03;;;3.13;;
48993;SDS011;34804;49.214;12.276;2023-04-03T03:55:21;5.10;;;2.65;;
48993;SDS011;34804;49.214;12.276;2023-04-03T03:57:48;5.63;;;2.60;;
48993;SDS011;34804;49.214;12.276;2023-04-03T04:00:15;7.82;;;2.70;;
48993;SDS011;34804;49.214;12.276;2023-04-03T04:02:42;5.55;;;2.88;;
48993;SDS011;34804;49.214;12.276;2023-04-03T04:05:09;6.07;;;2.50;;
48993;SDS011;34804;49.214;12.276;2023-04-03T04:07:36;6.57;;;2.90;;
48993;SDS011;34804;49.214;12.276;2023-04-03T04:10:03;5.00;;;2.47;;
48993;SDS011;34804;49.214;12.276;2023-04-03T04:12:31;6.50;;;2.85;;
48993;SDS011;34804;49.214;12.276;2023-04-03T04:14:58;5.10;;;2.60;;
48993;SDS011;34804;49.214;12.276;2023-04-03T04:17:25;7.25;;;2.80;;
48993;SDS011;34804;49.214;12.276;2023-04-03T04:19:52;5.65;;;2.70;;
48993;SDS011;34804;49.214;12.276;2023-04-03T04:22:19;9.63;;;3.95;;
48993;SDS011;34804;49.214;12.276;2023-04-03T04:24:46;5.78;;;3.05;;
48993;SDS011;34804;49.214;12.276;2023-04-03T04:27:13;6.25;;;2.67;;
48993;SDS011;34804;49.214;12.276;2023-04-03T04:29:39;5.90;;;2.90;;
48993;SDS011;34804;49.214;12.276;2023-04-03T04:32:06;5.88;;;2.95;;
48993;SDS011;34804;49.214;12.276;2023-04-03T04:34:33;6.32;;;3.10;;
48993;SDS011;34804;49.214;12.276;2023-04-03T04:37:00;6.30;;;2.75;;
48993;SDS011;34804;49.214;12.276;2023-04-03T04:39:27;5.90;;;2.83;;
48993;SDS011;34804;49.214;12.276;2023-04-03T04:41:54;8.93;;;3.78;;
48993;SDS011;34804;49.214;12.276;2023-04-03T04:44:20;5.68;;;3.10;;
48993;SDS011;34804;49.214;12.276;2023-04-03T04:46:47;5.57;;;2.70;;
48993;SDS011;34804;49.214;12.276;2023-04-03T04:49:14;6.15;;;3.00;;
48993;SDS011;34804;49.214;12.276;2023-04-03T04:51:41;5.78;;;3.00;;
48993;SDS011;34804;49.214;12.276;2023-04-03T04:54:17;5.90;;;3.33;;
48993;SDS011;34804;49.214;12.276;2023-04-03T04:56:44;6.50;;;3.28;;
48993;SDS011;34804;49.214;12.276;2023-04-03T04:59:11;6.43;;;3.05;;
48993;SDS011;34804;49.214;12.276;2023-04-03T05:01:38;6.65;;;3.42;;
48993;SDS011;34804;49.214;12.276;2023-04-03T05:04:05;7.78;;;3.80;;
48993;SDS011;34804;49.214;12.276;2023-04-03T05:06:32;7.95;;;3.63;;
48993;SDS011;34804;49.214;12.276;2023-04-03T05:09:01;6.93;;;3.60;;
48993;SDS011;34804;49.214;12.276;2023-04-03T05:11:28;5.47;;;3.17;;
48993;SDS011;34804;49.214;12.276;2023-04-03T05:13:55;5.47;;;3.20;;
48993;SDS011;34804;49.214;12.276;2023-04-03T05:16:22;6.82;;;3.72;;
48993;SDS011;34804;49.214;12.276;2023-04-03T05:18:48;7.30;;;3.90;;
48993;SDS011;34804;49.214;12.276;2023-04-03T05:21:15;10.13;;;6.30;;
48993;SDS011;34804;49.214;12.276;2023-04-03T05:23:44;18.17;;;11.40;;
48993;SDS011;34804;49.214;12.276;2023-04-03T05:26:11;21.00;;;13.45;;
48993;SDS011;34804;49.214;12.276;2023-04-03T05:28:38;20.55;;;13.55;;
48993;SDS011;34804;49.214;12.276;2023-04-03T05:31:04;26.40;;;15.63;;
48993;SDS011;34804;49.214;12.276;2023-04-03T05:33:31;19.90;;;12.85;;
48993;SDS011;34804;49.214;12.276;2023-04-03T05:36:01;18.50;;;12.07;;
48993;SDS011;34804;49.214;12.276;2023-04-03T05:38:31;9.63;;;6.32;;
48993;SDS011;34804;49.214;12.276;2023-04-03T05:40:59;11.93;;;5.20;;
48993;SDS011;34804;49.214;12.276;2023-04-03T05:43:26;10.15;;;4.03;;
48993;SDS011;34804;49.214;12.276;2023-04-03T05:45:52;6.22;;;3.80;;
48993;SDS011;34804;49.214;12.276;2023-04-03T05:48:19;7.63;;;3.60;;
48993;SDS011;34804;49.214;12.276;2023-04-03T05:50:46;9.00;;;3.50;;
48993;SDS011;34804;49.214;12.276;2023-04-03T05:53:25;5.60;;;3.60;;
48993;SDS011;34804;49.214;12.276;2023-04-03T05:55:54;6.20;;;3.53;;
48993;SDS011;34804;49.214;12.276;2023-04-03T05:58:21;8.15;;;3.40;;
48993;SDS011;34804;49.214;12.276;2023-04-03T06:00:48;8.23;;;3.63;;
48993;SDS011;34804;49.214;12.276;2023-04-03T06:03:14;10.50;;;3.35;;
48993;SDS011;34804;49.214;12.276;2023-04-03T06:05:42;8.77;;;4.13;;
48993;SDS011;34804;49.214;12.276;2023-04-03T06:08:09;5.90;;;3.55;;
48993;SDS011;34804;49.214;12.276;2023-04-03T06:10:36;8.73;;;4.20;;
48993;SDS011;34804;49.214;12.276;2023-04-03T06:13:03;6.72;;;4.15;;
48993;SDS011;34804;49.214;12.276;2023-04-03T06:15:30;6.13;;;3.55;;
48993;SDS011;34804;49.214;12.276;2023-04-03T06:17:57;6.90;;;3.20;;
48993;SDS011;34804;49.214;12.276;2023-04-03T06:20:24;8.45;;;3.78;;
48993;SDS011;34804;49.214;12.276;2023-04-03T06:22:52;11.15;;;3.83;;
48993;SDS011;34804;49.214;12.276;2023-04-03T06:25:19;6.38;;;3.00;;
48993;SDS011;34804;49.214;12.276;2023-04-03T06:27:47;6.03;;;3.08;;
48993;SDS011;34804;49.214;12.276;2023-04-03T06:30:14;9.68;;;3.35;;
48993;SDS011;34804;49.214;12.276;2023-04-03T06:32:40;6.95;;;2.90;;
48993;SDS011;34804;49.214;12.276;2023-04-03T06:35:07;4.68;;;2.53;;
48993;SDS011;34804;49.214;12.276;2023-04-03T06:37:35;7.10;;;2.70;;
48993;SDS011;34804;49.214;12.276;2023-04-03T06:40:02;8.13;;;2.78;;
48993;SDS011;34804;49.214;12.276;2023-04-03T06:42:30;8.75;;;2.90;;
48993;SDS011;34804;49.214;12.276;2023-04-03T06:44:57;8.32;;;3.05;;
48993;SDS011;34804;49.214;12.276;2023-04-03T06:47:24;8.40;;;3.00;;
48993;SDS011;34804;49.214;12.276;2023-04-03T06:49:51;10.27;;;3.88;;
48993;SDS011;34804;49.214;12.276;2023-04-03T06:52:18;6.00;;;2.60;;
48993;SDS011;34804;49.214;12.276;2023-04-03T06:54:48;5.32;;;2.75;;
48993;SDS011;34804;49.214;12.276;2023-04-03T06:57:15;5.80;;;2.75;;
48993;SDS011;34804;49.214;12.276;2023-04-03T06:59:42;5.72;;;2.72;;
48993;SDS011;34804;49.214;12.276;2023-04-03T07:02:09;6.60;;;2.92;;
48993;SDS011;34804;49.214;12.276;2023-04-03T07:04:38;7.20;;;2.90;;
48993;SDS011;34804;49.214;12.276;2023-04-03T07:07:05;11.68;;;2.97;;
48993;SDS011;34804;49.214;12.276;2023-04-03T07:09:32;6.78;;;2.60;;
48993;SDS011;34804;49.214;12.276;2023-04-03T07:12:00;5.30;;;2.50;;
48993;SDS011;34804;49.214;12.276;2023-04-03T07:14:28;7.18;;;2.83;;
48993;SDS011;34804;49.214;12.276;2023-04-03T07:16:56;5.53;;;2.60;;
48993;SDS011;34804;49.214;12.276;2023-04-03T07:19:24;6.63;;;3.25;;
48993;SDS011;34804;49.214;12.276;2023-04-03T07:21:54;6.22;;;2.65;;
48993;SDS011;34804;49.214;12.276;2023-04-03T07:24:21;5.85;;;2.20;;
48993;SDS011;34804;49.214;12.276;2023-04-03T07:26:52;4.28;;;1.90;;
48993;SDS011;34804;49.214;12.276;2023-04-03T07:29:19;5.03;;;1.90;;
48993;SDS011;34804;49.214;12.276;2023-04-03T07:31:47;5.38;;;2.40;;
48993;SDS011;34804;49.214;12.276;2023-04-03T07:34:15;5.18;;;1.98;;
48993;SDS011;34804;49.214;12.276;2023-04-03T07:36:42;4.97;;;2.30;;
48993;SDS011;34804;49.214;12.276;2023-04-03T07:39:09;4.90;;;1.77;;
48993;SDS011;34804;49.214;12.276;2023-04-03T07:41:35;5.35;;;2.00;;
48993;SDS011;34804;49.214;12.276;2023-04-03T07:44:03;8.27;;;2.20;;
48993;SDS011;34804;49.214;12.276;2023-04-03T07:46:32;6.43;;;1.88;;
48993;SDS011;34804;49.214;12.276;2023-04-03T07:48:59;5.40;;;2.20;;
48993;SDS011;34804;49.214;12.276;2023-04-03T07:51:28;4.32;;;1.60;;
48993;SDS011;34804;49.214;12.276;2023-04-03T07:54:07;6.97;;;1.60;;
48993;SDS011;34804;49.214;12.276;2023-04-03T07:56:34;4.82;;;1.67;;
48993;SDS011;34804;49.214;12.276;2023-04-03T07:59:01;4.43;;;1.52;;
48993;SDS011;34804;49.214;12.276;2023-04-03T08:01:28;5.57;;;2.03;;
48993;SDS011;34804;49.214;12.276;2023-04-03T08:03:58;7.28;;;1.67;;
48993;SDS011;34804;49.214;12.276;2023-04-03T08:06:27;4.40;;;1.40;;
48993;SDS011;34804;49.214;12.276;2023-04-03T08:09:11;3.33;;;1.30;;
48993;SDS011;34804;49.214;12.276;2023-04-03T08:11:39;4.85;;;1.65;;
48993;SDS011;34804;49.214;12.276;2023-04-03T08:14:06;3.88;;;1.30;;
48993;SDS011;34804;49.214;12.276;2023-04-03T08:16:33;5.43;;;1.80;;
48993;SDS011;34804;49.214;12.276;2023-04-03T08:19:00;4.20;;;1.23;;
48993;SDS011;34804;49.214;12.276;2023-04-03T08:21:27;6.45;;;1.55;;
48993;SDS011;34804;49.214;12.276;2023-04-03T08:23:55;5.45;;;1.40;;
48993;SDS011;34804;49.214;12.276;2023-04-03T08:26:22;3.72;;;1.30;;
48993;SDS011;34804;49.214;12.276;2023-04-03T08:28:49;5.43;;;1.40;;
48993;SDS011;34804;49.214;12.276;2023-04-03T08:31:17;3.92;;;1.27;;
48993;SDS011;34804;49.214;12.276;2023-04-03T08:33:46;7.68;;;1.90;;
48993;SDS011;34804;49.214;12.276;2023-04-03T08:36:18;4.65;;;1.38;;
48993;SDS011;34804;49.214;12.276;2023-04-03T08:38:45;3.37;;;1.10;;
48993;SDS011;34804;49.214;12.276;2023-04-03T08:41:29;2.85;;;0.98;;
48993;SDS011;34804;49.214;12.276;2023-04-03T08:51:41;4.43;;;1.10;;
48993;SDS011;34804;49.214;12.276;2023-04-03T08:54:56;3.70;;;1.15;;
48993;SDS011;34804;49.214;12.276;2023-04-03T08:57:35;3.75;;;1.15;;
48993;SDS011;34804;49.214;12.276;2023-04-03T09:00:07;2.88;;;1.08;;
48993;SDS011;34804;49.214;12.276;2023-04-03T09:02:44;5.43;;;1.20;;
48993;SDS011;34804;49.214;12.276;2023-04-03T09:05:19;2.92;;;1.02;;
48993;SDS011;34804;49.214;12.276;2023-04-03T09:07:55;4.65;;;1.92;;
48993;SDS011;34804;49.214;12.276;2023-04-03T09:10:30;3.38;;;1.30;;
48993;SDS011;34804;49.214;12.276;2023-04-03T09:15:48;2.10;;;0.98;;
48993;SDS011;34804;49.214;12.276;2023-04-03T09:21:21;2.50;;;1.13;;
48993;SDS011;34804;49.214;12.276;2023-04-03T09:23:58;5.50;;;1.10;;
48993;SDS011;34804;49.214;12.276;2023-04-03T09:26:45;2.80;;;1.05;;
48993;SDS011;34804;49.214;12.276;2023-04-03T09:29:20;3.35;;;1.13;;
48993;SDS011;34804;49.214;12.276;2023-04-03T09:31:50;3.90;;;1.85;;
48993;SDS011;34804;49.214;12.276;2023-04-03T09:34:24;4.47;;;1.00;;
48993;SDS011;34804;49.214;12.276;2023-04-03T09:36:55;4.18;;;1.20;;
48993;SDS011;34804;49.214;12.276;2023-04-03T09:39:26;4.55;;;1.23;;
48993;SDS011;34804;49.214;12.276;2023-04-03T09:41:58;3.72;;;0.98;;
48993;SDS011;34804;49.214;12.276;2023-04-03T09:44:31;4.47;;;1.30;;
48993;SDS011;34804;49.214;12.276;2023-04-03T09:47:00;3.67;;;1.40;;
48993;SDS011;34804;49.214;12.276;2023-04-03T09:49:45;4.40;;;1.38;;
48993;SDS011;34804;49.214;12.276;2023-04-03T09:52:19;3.22;;;1.10;;
48993;SDS011;34804;49.214;12.276;2023-04-03T09:54:49;2.15;;;0.77;;
48993;SDS011;34804;49.214;12.276;2023-04-03T09:57:16;5.90;;;1.55;;
48993;SDS011;34804;49.214;12.276;2023-04-03T09:59:57;3.38;;;1.17;;
48993;SDS011;34804;49.214;12.276;2023-04-03T10:02:32;4.50;;;1.30;;
48993;SDS011;34804;49.214;12.276;2023-04-03T10:05:26;4.43;;;1.38;;
48993;SDS011;34804;49.214;12.276;2023-04-03T10:10:39;3.23;;;1.20;;
48993;SDS011;34804;49.214;12.276;2023-04-03T10:13:15;6.80;;;1.40;;
48993;SDS011;34804;49.214;12.276;2023-04-03T10:15:51;3.03;;;1.17;;
48993;SDS011;34804;49.214;12.276;2023-04-03T10:20:59;4.05;;;1.50;;
48993;SDS011;34804;49.214;12.276;2023-04-03T10:23:48;4.15;;;1.30;;
48993;SDS011;34804;49.214;12.276;2023-04-03T10:35:18;3.60;;;1.05;;
48993;SDS011;34804;49.214;12.276;2023-04-03T10:40:30;3.20;;;1.20;;
48993;SDS011;34804;49.214;12.276;2023-04-03T10:45:57;4.43;;;1.40;;
48993;SDS011;34804;49.214;12.276;2023-04-03T10:48:40;2.42;;;0.98;;
48993;SDS011;34804;49.214;12.276;2023-04-03T10:54:29;2.85;;;1.17;;
48993;SDS011;34804;49.214;12.276;2023-04-03T10:57:03;4.95;;;1.20;;
48993;SDS011;34804;49.214;12.276;2023-04-03T11:02:20;2.33;;;1.00;;
48993;SDS011;34804;49.214;12.276;2023-04-03T11:07:47;2.70;;;1.10;;
48993;SDS011;34804;49.214;12.276;2023-04-03T11:10:21;5.93;;;1.25;;
48993;SDS011;34804;49.214;12.276;2023-04-03T11:12:57;5.72;;;1.20;;
48993;SDS011;34804;49.214;12.276;2023-04-03T11:15:29;4.85;;;1.33;;
48993;SDS011;34804;49.214;12.276;2023-04-03T11:18:04;2.83;;;1.20;;
48993;SDS011;34804;49.214;12.276;2023-04-03T11:20:37;3.80;;;1.25;;
48993;SDS011;34804;49.214;12.276;2023-04-03T11:23:26;3.13;;;1.15;;
48993;SDS011;34804;49.214;12.276;2023-04-03T11:26:24;2.75;;;0.90;;
48993;SDS011;34804;49.214;12.276;2023-04-03T11:28:56;4.25;;;1.13;;
48993;SDS011;34804;49.214;12.276;2023-04-03T11:34:04;3.63;;;1.05;;
48993;SDS011;34804;49.214;12.276;2023-04-03T11:36:39;3.95;;;1.17;;
48993;SDS011;34804;49.214;12.276;2023-04-03T11:41:51;2.70;;;1.10;;
48993;SDS011;34804;49.214;12.276;2023-04-03T11:44:33;5.22;;;1.30;;
48993;SDS011;34804;49.214;12.276;2023-04-03T11:47:03;3.50;;;1.13;;
48993;SDS011;34804;49.214;12.276;2023-04-03T12:09:04;2.70;;;1.02;;
48993;SDS011;34804;49.214;12.276;2023-04-03T12:32:22;8.90;;;1.70;;
48993;SDS011;34804;49.214;12.276;2023-04-03T12:35:13;1.80;;;0.88;;
48993;SDS011;34804;49.214;12.276;2023-04-03T12:44:09;3.72;;;1.00;;
48993;SDS011;34804;49.214;12.276;2023-04-03T12:46:47;5.05;;;1.35;;
48993;SDS011;34804;49.214;12.276;2023-04-03T12:51:56;5.80;;;1.20;;
48993;SDS011;34804;49.214;12.276;2023-04-03T12:54:27;2.97;;;1.10;;
48993;SDS011;34804;49.214;12.276;2023-04-03T12:57:35;3.45;;;1.10;;
48993;SDS011;34804;49.214;12.276;2023-04-03T12:59:55;3.97;;;1.40;;
48993;SDS011;34804;49.214;12.276;2023-04-03T13:02:29;3.10;;;1.00;;
48993;SDS011;34804;49.214;12.276;2023-04-03T13:05:05;2.78;;;0.93;;
48993;SDS011;34804;49.214;12.276;2023-04-03T13:07:35;4.43;;;1.30;;
48993;SDS011;34804;49.214;12.276;2023-04-03T13:12:54;3.75;;;1.20;;
48993;SDS011;34804;49.214;12.276;2023-04-03T13:15:29;3.40;;;1.25;;
48993;SDS011;34804;49.214;12.276;2023-04-03T13:18:10;3.53;;;1.30;;
48993;SDS011;34804;49.214;12.276;2023-04-03T13:20:48;3.53;;;1.20;;
48993;SDS011;34804;49.214;12.276;2023-04-03T13:23:16;3.95;;;1.50;;
48993;SDS011;34804;49.214;12.276;2023-04-03T13:25:46;3.85;;;1.30;;
48993;SDS011;34804;49.214;12.276;2023-04-03T13:28:15;4.38;;;1.40;;
48993;SDS011;34804;49.214;12.276;2023-04-03T13:31:46;3.65;;;1.30;;
48993;SDS011;34804;49.214;12.276;2023-04-03T13:33:57;6.10;;;1.60;;
48993;SDS011;34804;49.214;12.276;2023-04-03T13:36:40;6.47;;;1.20;;
48993;SDS011;34804;49.214;12.276;2023-04-03T13:41:45;3.03;;;1.10;;
48993;SDS011;34804;49.214;12.276;2023-04-03T13:44:35;4.57;;;1.25;;
48993;SDS011;34804;49.214;12.276;2023-04-03T13:49:38;3.70;;;1.33;;
48993;SDS011;34804;49.214;12.276;2023-04-03T13:54:57;3.42;;;1.23;;
48993;SDS011;34804;49.214;12.276;2023-04-03T13:57:28;3.67;;;1.48;;
48993;SDS011;34804;49.214;12.276;2023-04-03T13:59:55;4.32;;;1.50;;
48993;SDS011;34804;49.214;12.276;2023-04-03T14:02:28;3.15;;;1.30;;
48993;SDS011;34804;49.214;12.276;2023-04-03T14:04:57;5.03;;;1.40;;
48993;SDS011;34804;49.214;12.276;2023-04-03T14:07:28;3.28;;;1.27;;
48993;SDS011;34804;49.214;12.276;2023-04-03T14:09:57;4.38;;;1.40;;
48993;SDS011;34804;49.214;12.276;2023-04-03T14:12:28;5.07;;;1.23;;
48993;SDS011;34804;49.214;12.276;2023-04-03T14:15:03;3.72;;;1.48;;
48993;SDS011;34804;49.214;12.276;2023-04-03T14:17:50;4.03;;;1.50;;
48993;SDS011;34804;49.214;12.276;2023-04-03T14:20:19;3.72;;;1.15;;
48993;SDS011;34804;49.214;12.276;2023-04-03T14:22:48;2.80;;;1.10;;
48993;SDS011;34804;49.214;12.276;2023-04-03T14:25:16;5.15;;;1.30;;
48993;SDS011;34804;49.214;12.276;2023-04-03T14:27:44;5.65;;;1.30;;
48993;SDS011;34804;49.214;12.276;2023-04-03T14:30:34;3.42;;;1.20;;
48993;SDS011;34804;49.214;12.276;2023-04-03T14:33:01;3.83;;;1.30;;
48993;SDS011;34804;49.214;12.276;2023-04-03T14:35:28;5.22;;;1.40;;
48993;SDS011;34804;49.214;12.276;2023-04-03T14:37:54;5.07;;;1.33;;
48993;SDS011;34804;49.214;12.276;2023-04-03T14:40:23;2.22;;;1.00;;
48993;SDS011;34804;49.214;12.276;2023-04-03T14:42:52;4.32;;;1.25;;
48993;SDS011;34804;49.214;12.276;2023-04-03T14:45:21;3.92;;;1.30;;
48993;SDS011;34804;49.214;12.276;2023-04-03T14:47:49;3.63;;;1.30;;
48993;SDS011;34804;49.214;12.276;2023-04-03T14:50:20;3.75;;;1.40;;
48993;SDS011;34804;49.214;12.276;2023-04-03T14:52:51;5.63;;;1.50;;
48993;SDS011;34804;49.214;12.276;2023-04-03T14:55:21;3.85;;;1.45;;
48993;SDS011;34804;49.214;12.276;2023-04-03T14:57:50;3.17;;;1.17;;
48993;SDS011;34804;49.214;12.276;2023-04-03T15:00:19;3.33;;;1.30;;
48993;SDS011;34804;49.214;12.276;2023-04-03T15:02:47;5.25;;;1.30;;
48993;SDS011;34804;49.214;12.276;2023-04-03T15:05:15;6.07;;;1.50;;
48993;SDS011;34804;49.214;12.276;2023-04-03T15:07:44;3.88;;;1.33;;
48993;SDS011;34804;49.214;12.276;2023-04-03T15:10:19;3.80;;;1.40;;
48993;SDS011;34804;49.214;12.276;2023-04-03T15:12:54;4.97;;;1.30;;
48993;SDS011;34804;49.214;12.276;2023-04-03T15:15:22;2.90;;;1.30;;
48993;SDS011;34804;49.214;12.276;2023-04-03T15:17:51;4.10;;;1.60;;
48993;SDS011;34804;49.214;12.276;2023-04-03T15:20:25;4.93;;;1.90;;
48993;SDS011;34804;49.214;12.276;2023-04-03T15:22:53;4.22;;;1.50;;
48993;SDS011;34804;49.214;12.276;2023-04-03T15:25:22;6.18;;;1.90;;
48993;SDS011;34804;49.214;12.276;2023-04-03T15:27:50;5.28;;;1.30;;
48993;SDS011;34804;49.214;12.276;2023-04-03T15:30:18;3.88;;;1.20;;
48993;SDS011;34804;49.214;12.276;2023-04-03T15:32:46;4.85;;;1.25;;
48993;SDS011;34804;49.214;12.276;2023-04-03T15:35:13;4.85;;;1.58;;
48993;SDS011;34804;49.214;12.276;2023-04-03T15:37:40;4.07;;;1.40;;
48993;SDS011;34804;49.214;12.276;2023-04-03T15:40:07;3.97;;;1.55;;
48993;SDS011;34804;49.214;12.276;2023-04-03T15:42:34;5.47;;;1.40;;
48993;SDS011;34804;49.214;12.276;2023-04-03T15:45:01;2.40;;;1.17;;
48993;SDS011;34804;49.214;12.276;2023-04-03T15:47:28;4.78;;;1.25;;
48993;SDS011;34804;49.214;12.276;2023-04-03T15:49:55;3.25;;;1.30;;
48993;SDS011;34804;49.214;12.276;2023-04-03T15:52:23;4.35;;;1.40;;
48993;SDS011;34804;49.214;12.276;2023-04-03T15:54:50;4.53;;;1.40;;
48993;SDS011;34804;49.214;12.276;2023-04-03T15:57:16;4.32;;;1.38;;
48993;SDS011;34804;49.214;12.276;2023-04-03T15:59:43;4.18;;;1.50;;
48993;SDS011;34804;49.214;12.276;2023-04-03T16:02:11;3.92;;;1.40;;
48993;SDS011;34804;49.214;12.276;2023-04-03T16:04:39;4.93;;;1.45;;
48993;SDS011;34804;49.214;12.276;2023-04-03T16:07:07;7.32;;;1.33;;
48993;SDS011;34804;49.214;12.276;2023-04-03T16:09:34;4.30;;;1.33;;
48993;SDS011;34804;49.214;12.276;2023-04-03T16:12:02;2.92;;;1.20;;
48993;SDS011;34804;49.214;12.276;2023-04-03T16:14:29;6.53;;;1.85;;
48993;SDS011;34804;49.214;12.276;2023-04-03T16:16:57;6.93;;;2.28;;
48993;SDS011;34804;49.214;12.276;2023-04-03T16:19:27;5.82;;;1.50;;
48993;SDS011;34804;49.214;12.276;2023-04-03T16:21:56;4.68;;;1.52;;
48993;SDS011;34804;49.214;12.276;2023-04-03T16:24:23;6.22;;;1.50;;
48993;SDS011;34804;49.214;12.276;2023-04-03T16:26:49;3.53;;;1.45;;
48993;SDS011;34804;49.214;12.276;2023-04-03T16:29:16;3.95;;;1.50;;
48993;SDS011;34804;49.214;12.276;2023-04-03T16:31:43;6.90;;;1.88;;
48993;SDS011;34804;49.214;12.276;2023-04-03T16:34:10;2.97;;;1.45;;
48993;SDS011;34804;49.214;12.276;2023-04-03T16:36:37;3.83;;;1.63;;
48993;SDS011;34804;49.214;12.276;2023-04-03T16:39:04;4.00;;;1.60;;
48993;SDS011;34804;49.214;12.276;2023-04-03T16:41:31;4.35;;;1.40;;
48993;SDS011;34804;49.214;12.276;2023-04-03T16:43:58;4.13;;;1.48;;
48993;SDS011;34804;49.214;12.276;2023-04-03T16:46:25;3.80;;;1.70;;
48993;SDS011;34804;49.214;12.276;2023-04-03T16:48:52;3.88;;;1.70;;